createdAt,value
2023-12-01T00:01:09.301Z,18.67
2023-12-01T00:07:11.345Z,17.50
2023-12-01T00:13:13.336Z,21.47
2023-12-01T00:19:15.564Z,21.83
2023-12-01T00:25:17.551Z,20.43
2023-12-01T00:31:19.812Z,21.30
2023-12-01T00:37:24.684Z,21.03
2023-12-01T00:43:27.516Z,20.37
2023-12-01T00:49:29.522Z,20.07
2023-12-01T00:55:31.501Z,22.90
2023-12-01T01:01:34.701Z,21.90
2023-12-01T01:07:36.714Z,20.83
2023-12-01T01:13:38.702Z,19.60
2023-12-01T01:19:40.644Z,19.37
2023-12-01T01:25:42.656Z,21.10
2023-12-01T01:31:44.737Z,20.37
2023-12-01T01:37:47.085Z,20.63
2023-12-01T01:43:49.057Z,21.53
2023-12-01T01:49:51.285Z,18.63
2023-12-01T01:55:53.720Z,19.60
2023-12-01T02:01:56.473Z,19.10
2023-12-01T02:08:18.585Z,21.33
2023-12-01T02:14:23.057Z,20.60
2023-12-01T02:20:25.434Z,20.13
2023-12-01T02:26:27.449Z,18.43
2023-12-01T02:32:29.438Z,19.80
2023-12-01T02:38:31.408Z,23.47
2023-12-01T02:44:33.358Z,19.33
2023-12-01T02:50:36.101Z,20.40
2023-12-01T02:56:38.131Z,18.23
2023-12-01T03:02:43.967Z,18.13
2023-12-01T03:08:47.410Z,17.03
2023-12-01T03:15:05.396Z,18.63
2023-12-01T03:21:14.482Z,19.23
2023-12-01T03:27:26.672Z,18.03
2023-12-01T03:33:28.702Z,19.47
2023-12-01T03:39:34.226Z,17.50
2023-12-01T03:45:36.303Z,19.90
2023-12-01T03:51:38.571Z,18.63
2023-12-01T03:57:42.208Z,19.67
2023-12-01T04:03:44.403Z,16.07
2023-12-01T04:09:47.189Z,17.50
2023-12-01T04:15:49.846Z,17.83
2023-12-01T04:21:53.876Z,18.30
2023-12-01T04:28:00.170Z,16.77
2023-12-01T04:34:02.437Z,15.17
2023-12-01T04:40:05.211Z,13.43
2023-12-01T04:46:08.169Z,12.17
2023-12-01T04:52:10.214Z,12.70
2023-12-01T04:58:12.321Z,13.40
2023-12-01T05:04:14.634Z,12.73
2023-12-01T05:10:22.500Z,12.63
2023-12-01T05:16:24.841Z,13.30
2023-12-01T05:22:26.844Z,13.43
2023-12-01T05:28:28.790Z,14.00
2023-12-01T05:34:30.823Z,13.70
2023-12-01T05:40:38.441Z,14.33
2023-12-01T05:46:42.810Z,14.27
2023-12-01T05:52:49.233Z,12.93
2023-12-01T05:58:51.934Z,13.47
2023-12-01T06:04:54.066Z,14.70
2023-12-01T06:10:56.245Z,13.87
2023-12-01T06:16:58.496Z,14.13
2023-12-01T06:23:07.294Z,13.63
2023-12-01T06:29:09.676Z,13.93
2023-12-01T06:35:17.300Z,12.80
2023-12-01T06:41:19.414Z,12.93
2023-12-01T06:47:21.366Z,14.00
2023-12-01T06:53:23.393Z,12.07
2023-12-01T06:59:25.461Z,16.67
2023-12-01T07:05:29.160Z,15.20
2023-12-01T07:11:31.391Z,13.03
2023-12-01T07:17:36.345Z,15.60
2023-12-01T07:23:41.509Z,15.07
2023-12-01T07:29:43.553Z,14.13
2023-12-01T07:35:45.647Z,14.63
2023-12-01T07:41:47.670Z,14.70
2023-12-01T07:47:52.814Z,14.60
2023-12-01T07:53:55.021Z,15.50
2023-12-01T07:59:57.756Z,16.57
2023-12-01T08:06:00.814Z,16.07
2023-12-01T08:12:04.843Z,16.10
2023-12-01T08:18:06.963Z,14.30
2023-12-01T08:24:09.111Z,14.63
2023-12-01T08:30:18.458Z,14.70
2023-12-01T08:36:22.343Z,16.67
2023-12-01T08:42:24.986Z,15.87
2023-12-01T08:48:27.118Z,16.50
2023-12-01T09:17:33.251Z,14.00
2023-12-01T09:23:35.287Z,15.10
2023-12-01T09:29:37.490Z,13.60
2023-12-01T09:35:55.415Z,12.80
2023-12-01T09:42:07.234Z,14.80
2023-12-01T09:48:11.804Z,10.40
2023-12-01T09:54:13.889Z,9.07
2023-12-01T10:00:16.350Z,9.90
2023-12-01T10:06:18.795Z,10.23
2023-12-01T10:12:20.788Z,7.87
2023-12-01T10:18:26.470Z,8.80
2023-12-01T10:24:32.097Z,6.83
2023-12-01T10:30:34.652Z,8.50
2023-12-01T10:36:36.685Z,6.93
2023-12-01T10:42:38.708Z,6.60
2023-12-01T10:48:41.601Z,7.00
2023-12-01T10:54:44.934Z,7.23
2023-12-01T11:00:47.031Z,8.40
2023-12-01T11:07:26.741Z,6.40
2023-12-01T11:13:36.804Z,7.07
2023-12-01T11:19:40.141Z,6.97
2023-12-01T11:25:57.079Z,6.97
2023-12-01T11:31:59.323Z,7.40
2023-12-01T11:38:05.795Z,6.80
2023-12-01T11:44:36.402Z,7.40
2023-12-01T11:50:41.737Z,6.33
2023-12-01T11:56:50.402Z,7.73
2023-12-01T12:02:53.303Z,9.97
2023-12-01T12:08:55.392Z,9.37
2023-12-01T12:15:09.725Z,9.33
2023-12-01T12:21:11.754Z,10.00
2023-12-01T12:27:13.930Z,9.97
2023-12-01T12:33:16.476Z,9.33
2023-12-01T12:39:18.603Z,10.00
2023-12-01T12:45:21.454Z,9.50
2023-12-01T12:51:26.402Z,11.00
2023-12-01T12:57:28.409Z,11.87
2023-12-01T13:03:30.377Z,12.60
2023-12-01T13:09:32.459Z,10.50
2023-12-01T13:15:34.448Z,11.50
2023-12-01T13:21:36.688Z,11.27
2023-12-01T13:27:38.937Z,12.03
2023-12-01T13:33:41.221Z,14.87
2023-12-01T13:39:44.170Z,9.47
2023-12-01T13:45:46.820Z,11.20
2023-12-01T13:51:48.976Z,10.37
2023-12-01T13:57:54.452Z,9.73
2023-12-01T14:03:56.705Z,9.10
2023-12-01T14:09:58.667Z,9.27
2023-12-01T14:16:03.580Z,7.67
2023-12-01T14:22:07.613Z,8.23
2023-12-01T14:28:09.562Z,10.53
2023-12-01T14:34:11.781Z,8.00
2023-12-01T14:40:13.782Z,8.60
2023-12-01T14:46:15.813Z,8.53
2023-12-01T14:52:17.828Z,6.80
2023-12-01T14:58:19.813Z,6.90
2023-12-01T15:04:21.848Z,6.13
2023-12-01T15:10:24.151Z,6.03
2023-12-01T15:16:26.225Z,6.20
2023-12-01T15:22:28.206Z,6.50
2023-12-01T15:28:32.584Z,6.20
2023-12-01T15:34:34.575Z,6.90
2023-12-01T15:40:36.529Z,7.00
2023-12-01T15:46:38.527Z,7.93
2023-12-01T15:52:40.518Z,9.57
2023-12-01T15:58:42.544Z,10.40
2023-12-01T16:04:47.266Z,12.10
2023-12-01T16:10:50.649Z,10.33
2023-12-01T16:16:54.298Z,11.13
2023-12-01T16:22:56.475Z,11.17
2023-12-01T16:28:58.542Z,11.40
2023-12-01T16:35:00.468Z,11.53
2023-12-01T16:41:02.432Z,11.47
2023-12-01T16:47:04.452Z,10.87
2023-12-01T16:53:06.610Z,11.50
2023-12-01T16:59:08.627Z,10.60
2023-12-01T17:05:10.786Z,10.97
2023-12-01T17:11:12.746Z,11.70
2023-12-01T17:17:14.702Z,11.23
2023-12-01T17:23:17.570Z,12.53
2023-12-01T17:29:20.649Z,11.50
2023-12-01T17:35:22.952Z,10.73
2023-12-01T17:41:25.385Z,10.30
2023-12-01T17:47:27.306Z,9.60
2023-12-01T17:53:29.242Z,10.47
2023-12-01T17:59:31.192Z,11.20
2023-12-01T18:05:33.155Z,10.80
2023-12-01T18:11:35.110Z,10.13
2023-12-01T18:17:37.269Z,11.40
2023-12-01T18:23:39.359Z,9.17
2023-12-01T18:29:41.483Z,9.50
2023-12-01T18:35:45.920Z,10.20
2023-12-01T18:41:49.953Z,10.50
2023-12-01T18:47:53.355Z,10.00
2023-12-01T18:53:55.457Z,10.70
2023-12-01T18:59:57.519Z,10.10
2023-12-01T19:05:59.622Z,10.17
2023-12-01T19:12:01.695Z,10.00
2023-12-01T19:18:03.940Z,10.60
2023-12-01T19:24:07.098Z,10.23
2023-12-01T19:30:09.986Z,8.43
2023-12-01T19:36:12.500Z,8.40
2023-12-01T19:42:17.592Z,11.10
2023-12-01T19:48:22.548Z,8.40
2023-12-01T19:54:26.148Z,9.67
2023-12-01T20:00:29.180Z,8.70
2023-12-01T20:06:31.402Z,8.50
2023-12-01T20:12:33.456Z,8.13
2023-12-01T20:18:35.583Z,9.13
2023-12-01T20:24:37.706Z,9.07
2023-12-01T20:30:39.644Z,7.83
2023-12-01T20:36:41.600Z,8.57
2023-12-01T20:42:43.978Z,8.30
2023-12-01T20:48:46.147Z,10.10
2023-12-01T20:54:48.426Z,8.57
2023-12-01T21:00:50.394Z,11.60
2023-12-01T21:06:52.419Z,31.20
2023-12-01T21:12:54.364Z,14.43
2023-12-01T21:18:56.452Z,7.40
2023-12-01T21:24:58.481Z,9.30
2023-12-01T21:31:00.542Z,6.23
2023-12-01T21:37:02.520Z,6.20
2023-12-01T21:43:04.454Z,9.97
2023-12-01T21:49:07.008Z,8.80
2023-12-01T21:55:09.550Z,6.57
2023-12-01T22:01:11.520Z,6.80
2023-12-01T22:07:13.470Z,7.87
2023-12-01T22:13:15.452Z,7.20
2023-12-01T22:19:17.472Z,6.10
2023-12-01T22:25:19.491Z,6.23
2023-12-01T22:31:21.412Z,7.07
2023-12-01T22:37:23.363Z,7.07
2023-12-01T22:43:25.291Z,7.60
2023-12-01T22:49:27.738Z,7.00
2023-12-01T22:55:29.696Z,6.63
2023-12-01T23:01:31.641Z,7.50
2023-12-01T23:07:33.592Z,6.10
2023-12-01T23:13:36.457Z,6.23
2023-12-01T23:19:39.989Z,6.13
2023-12-01T23:25:42.007Z,4.97
2023-12-01T23:31:43.997Z,5.17
2023-12-01T23:37:45.926Z,5.73
2023-12-01T23:43:47.889Z,5.43
2023-12-01T23:49:49.966Z,4.97
2023-12-01T23:55:52.406Z,4.80
